sensor_id;sensor_type;location;lat;lon;timestamp;pressure;altitude;pressure_sealevel;temperature;humidity
62510;BME280;48558;48.242;11.654;2022-08-19T00:04:11;95751.34;;;16.45;100.00
62510;BME280;48558;48.242;11.654;2022-08-19T00:09:17;95763.41;;;16.59;100.00
62510;BME280;48558;48.242;11.654;2022-08-19T00:14:24;95764.03;;;16.70;100.00
62510;BME280;48558;48.242;11.654;2022-08-19T00:19:28;95768.09;;;16.69;100.00
62510;BME280;48558;48.242;11.654;2022-08-19T00:24:32;95759.56;;;16.81;100.00
62510;BME280;48558;48.242;11.654;2022-08-19T00:29:36;95731.19;;;16.90;100.00
62510;BME280;48558;48.242;11.654;2022-08-19T00:34:42;95716.38;;;16.76;100.00
62510;BME280;48558;48.242;11.654;2022-08-19T00:39:46;95699.50;;;16.82;100.00
62510;BME280;48558;48.242;11.654;2022-08-19T00:44:50;95703.22;;;16.71;100.00
62510;BME280;48558;48.242;11.654;2022-08-19T00:49:56;95705.50;;;16.73;100.00
62510;BME280;48558;48.242;11.654;2022-08-19T00:55:04;95700.06;;;16.61;100.00
62510;BME280;48558;48.242;11.654;2022-08-19T01:00:11;95674.44;;;16.57;100.00
62510;BME280;48558;48.242;11.654;2022-08-19T01:05:20;95697.38;;;16.50;100.00
62510;BME280;48558;48.242;11.654;2022-08-19T01:10:27;95713.69;;;16.46;100.00
62510;BME280;48558;48.242;11.654;2022-08-19T01:15:45;95690.78;;;16.48;100.00
62510;BME280;48558;48.242;11.654;2022-08-19T01:20:49;95695.03;;;16.54;100.00
62510;BME280;48558;48.242;11.654;2022-08-19T01:25:56;95699.56;;;16.39;100.00
62510;BME280;48558;48.242;11.654;2022-08-19T01:31:00;95689.44;;;16.36;100.00
62510;BME280;48558;48.242;11.654;2022-08-19T01:36:13;95712.63;;;16.31;100.00
62510;BME280;48558;48.242;11.654;2022-08-19T01:41:17;95717.69;;;16.51;100.00
62510;BME280;48558;48.242;11.654;2022-08-19T01:46:20;95718.22;;;16.49;100.00
62510;BME280;48558;48.242;11.654;2022-08-19T01:51:26;95732.88;;;16.80;100.00
62510;BME280;48558;48.242;11.654;2022-08-19T01:56:39;95716.47;;;16.70;100.00
62510;BME280;48558;48.242;11.654;2022-08-19T02:01:43;95736.50;;;16.75;100.00
62510;BME280;48558;48.242;11.654;2022-08-19T02:06:47;95729.00;;;16.83;100.00
62510;BME280;48558;48.242;11.654;2022-08-19T02:11:51;95730.91;;;16.75;100.00
62510;BME280;48558;48.242;11.654;2022-08-19T02:16:54;95735.97;;;16.57;100.00
62510;BME280;48558;48.242;11.654;2022-08-19T02:21:59;95748.59;;;16.83;100.00
62510;BME280;48558;48.242;11.654;2022-08-19T02:27:05;95756.03;;;16.80;100.00
62510;BME280;48558;48.242;11.654;2022-08-19T02:32:08;95751.00;;;16.92;100.00
62510;BME280;48558;48.242;11.654;2022-08-19T02:37:12;95771.22;;;16.85;100.00
62510;BME280;48558;48.242;11.654;2022-08-19T02:42:37;95741.50;;;16.82;100.00
62510;BME280;48558;48.242;11.654;2022-08-19T02:47:40;95735.28;;;16.89;100.00
62510;BME280;48558;48.242;11.654;2022-08-19T02:52:46;95722.06;;;16.70;100.00
62510;BME280;48558;48.242;11.654;2022-08-19T02:57:52;95699.34;;;16.93;100.00
62510;BME280;48558;48.242;11.654;2022-08-19T03:02:55;95698.91;;;16.89;100.00
62510;BME280;48558;48.242;11.654;2022-08-19T03:07:59;95694.53;;;16.75;100.00
62510;BME280;48558;48.242;11.654;2022-08-19T03:13:02;95698.31;;;16.77;100.00
62510;BME280;48558;48.242;11.654;2022-08-19T03:18:07;95721.91;;;16.82;100.00
62510;BME280;48558;48.242;11.654;2022-08-19T03:23:11;95716.59;;;16.78;100.00
62510;BME280;48558;48.242;11.654;2022-08-19T03:28:16;95723.78;;;16.73;100.00
62510;BME280;48558;48.242;11.654;2022-08-19T03:33:19;95740.56;;;16.73;100.00
62510;BME280;48558;48.242;11.654;2022-08-19T03:38:30;95721.97;;;16.76;100.00
62510;BME280;48558;48.242;11.654;2022-08-19T03:43:38;95732.34;;;16.81;100.00
62510;BME280;48558;48.242;11.654;2022-08-19T03:48:43;95734.38;;;16.81;100.00
62510;BME280;48558;48.242;11.654;2022-08-19T03:53:49;95733.41;;;16.59;100.00
62510;BME280;48558;48.242;11.654;2022-08-19T03:58:52;95730.44;;;16.70;100.00
62510;BME280;48558;48.242;11.654;2022-08-19T04:03:58;95725.53;;;16.77;100.00
62510;BME280;48558;48.242;11.654;2022-08-19T04:09:04;95721.50;;;16.91;100.00
62510;BME280;48558;48.242;11.654;2022-08-19T04:14:09;95723.31;;;16.88;100.00
62510;BME280;48558;48.242;11.654;2022-08-19T04:19:14;95725.34;;;16.88;100.00
62510;BME280;48558;48.242;11.654;2022-08-19T04:24:19;95715.91;;;16.91;100.00
62510;BME280;48558;48.242;11.654;2022-08-19T04:29:24;95724.59;;;16.87;100.00
62510;BME280;48558;48.242;11.654;2022-08-19T04:34:28;95727.34;;;16.93;100.00
62510;BME280;48558;48.242;11.654;2022-08-19T04:39:35;95736.78;;;16.90;100.00
62510;BME280;48558;48.242;11.654;2022-08-19T04:45:12;95734.59;;;16.83;100.00
62510;BME280;48558;48.242;11.654;2022-08-19T04:50:15;95745.78;;;17.01;100.00
62510;BME280;48558;48.242;11.654;2022-08-19T04:55:19;95756.59;;;16.92;100.00
62510;BME280;48558;48.242;11.654;2022-08-19T05:00:23;95774.22;;;17.05;100.00
62510;BME280;48558;48.242;11.654;2022-08-19T05:05:26;95770.69;;;17.05;100.00
62510;BME280;48558;48.242;11.654;2022-08-19T05:10:29;95780.47;;;16.98;100.00
62510;BME280;48558;48.242;11.654;2022-08-19T05:15:33;95788.09;;;16.98;100.00
62510;BME280;48558;48.242;11.654;2022-08-19T05:20:40;95792.53;;;17.06;100.00
62510;BME280;48558;48.242;11.654;2022-08-19T05:26:02;95775.50;;;17.23;100.00
62510;BME280;48558;48.242;11.654;2022-08-19T05:31:09;95793.91;;;17.18;100.00
62510;BME280;48558;48.242;11.654;2022-08-19T05:36:13;95786.03;;;17.17;100.00
62510;BME280;48558;48.242;11.654;2022-08-19T05:41:17;95775.84;;;17.32;100.00
62510;BME280;48558;48.242;11.654;2022-08-19T05:46:20;95772.47;;;17.21;100.00
62510;BME280;48558;48.242;11.654;2022-08-19T05:51:29;95772.47;;;17.21;100.00
62510;BME280;48558;48.242;11.654;2022-08-19T05:56:33;95763.53;;;17.22;100.00
62510;BME280;48558;48.242;11.654;2022-08-19T06:01:47;95776.41;;;17.31;100.00
62510;BME280;48558;48.242;11.654;2022-08-19T06:06:53;95770.06;;;17.12;100.00
62510;BME280;48558;48.242;11.654;2022-08-19T06:11:58;95760.53;;;17.20;100.00
62510;BME280;48558;48.242;11.654;2022-08-19T06:17:02;95778.66;;;17.32;100.00
62510;BME280;48558;48.242;11.654;2022-08-19T06:22:08;95789.47;;;17.41;100.00
62510;BME280;48558;48.242;11.654;2022-08-19T06:27:14;95790.94;;;17.29;100.00
62510;BME280;48558;48.242;11.654;2022-08-19T06:32:18;95781.34;;;17.25;100.00
62510;BME280;48558;48.242;11.654;2022-08-19T06:37:22;95779.13;;;17.36;100.00
62510;BME280;48558;48.242;11.654;2022-08-19T06:42:25;95783.84;;;17.41;100.00
62510;BME280;48558;48.242;11.654;2022-08-19T06:47:29;95780.28;;;17.60;100.00
62510;BME280;48558;48.242;11.654;2022-08-19T06:52:34;95778.19;;;17.79;100.00
62510;BME280;48558;48.242;11.654;2022-08-19T06:57:39;95797.03;;;17.65;100.00
62510;BME280;48558;48.242;11.654;2022-08-19T07:02:43;95788.88;;;17.49;100.00
62510;BME280;48558;48.242;11.654;2022-08-19T07:07:56;95787.78;;;17.70;100.00
62510;BME280;48558;48.242;11.654;2022-08-19T07:13:06;95782.88;;;17.58;100.00
62510;BME280;48558;48.242;11.654;2022-08-19T07:18:10;95777.19;;;17.44;100.00
62510;BME280;48558;48.242;11.654;2022-08-19T07:23:14;95776.97;;;17.61;100.00
62510;BME280;48558;48.242;11.654;2022-08-19T07:28:17;95765.00;;;17.61;100.00
62510;BME280;48558;48.242;11.654;2022-08-19T07:33:25;95750.81;;;17.85;100.00
62510;BME280;48558;48.242;11.654;2022-08-19T07:38:32;95742.88;;;18.41;100.00
62510;BME280;48558;48.242;11.654;2022-08-19T07:43:37;95737.47;;;19.03;100.00
62510;BME280;48558;48.242;11.654;2022-08-19T07:48:42;95749.34;;;18.96;100.00
62510;BME280;48558;48.242;11.654;2022-08-19T07:53:46;95748.09;;;18.84;100.00
62510;BME280;48558;48.242;11.654;2022-08-19T07:58:52;95757.34;;;18.32;100.00
62510;BME280;48558;48.242;11.654;2022-08-19T08:04:00;95773.84;;;18.23;100.00
62510;BME280;48558;48.242;11.654;2022-08-19T08:09:31;95774.31;;;17.82;100.00
62510;BME280;48558;48.242;11.654;2022-08-19T08:14:42;95763.28;;;17.71;100.00
62510;BME280;48558;48.242;11.654;2022-08-19T08:19:49;95757.13;;;17.59;100.00
62510;BME280;48558;48.242;11.654;2022-08-19T08:24:53;95755.66;;;17.84;100.00
62510;BME280;48558;48.242;11.654;2022-08-19T08:29:57;95771.41;;;17.87;100.00
62510;BME280;48558;48.242;11.654;2022-08-19T08:35:06;95783.06;;;17.91;100.00
62510;BME280;48558;48.242;11.654;2022-08-19T08:40:28;95781.56;;;17.90;100.00
62510;BME280;48558;48.242;11.654;2022-08-19T08:45:35;95790.94;;;17.93;100.00
62510;BME280;48558;48.242;11.654;2022-08-19T08:50:47;95786.72;;;17.86;100.00
62510;BME280;48558;48.242;11.654;2022-08-19T08:55:53;95795.25;;;17.94;100.00
62510;BME280;48558;48.242;11.654;2022-08-19T09:00:57;95799.38;;;18.06;100.00
62510;BME280;48558;48.242;11.654;2022-08-19T09:06:16;95774.69;;;18.18;100.00
62510;BME280;48558;48.242;11.654;2022-08-19T09:16:45;95812.72;;;18.58;100.00
62510;BME280;48558;48.242;11.654;2022-08-19T09:21:48;95802.56;;;18.42;100.00
62510;BME280;48558;48.242;11.654;2022-08-19T09:26:53;95808.63;;;18.59;100.00
62510;BME280;48558;48.242;11.654;2022-08-19T09:31:58;95813.25;;;18.56;100.00
62510;BME280;48558;48.242;11.654;2022-08-19T09:37:03;95808.94;;;18.42;100.00
62510;BME280;48558;48.242;11.654;2022-08-19T09:42:07;95805.03;;;18.32;100.00
62510;BME280;48558;48.242;11.654;2022-08-19T09:47:31;95803.81;;;18.28;100.00
62510;BME280;48558;48.242;11.654;2022-08-19T09:52:41;95799.66;;;18.60;100.00
62510;BME280;48558;48.242;11.654;2022-08-19T09:58:01;95797.97;;;18.91;100.00
62510;BME280;48558;48.242;11.654;2022-08-19T10:03:06;95797.53;;;19.88;100.00
62510;BME280;48558;48.242;11.654;2022-08-19T10:08:10;95801.47;;;20.34;100.00
62510;BME280;48558;48.242;11.654;2022-08-19T10:13:17;95793.66;;;21.12;100.00
62510;BME280;48558;48.242;11.654;2022-08-19T10:18:23;95816.50;;;20.37;100.00
62510;BME280;48558;48.242;11.654;2022-08-19T10:23:27;95816.81;;;20.05;100.00
62510;BME280;48558;48.242;11.654;2022-08-19T10:28:37;95824.25;;;20.44;100.00
62510;BME280;48558;48.242;11.654;2022-08-19T10:33:47;95825.53;;;19.73;100.00
62510;BME280;48558;48.242;11.654;2022-08-19T10:38:58;95814.34;;;19.81;100.00
62510;BME280;48558;48.242;11.654;2022-08-19T10:44:07;95818.78;;;19.56;100.00
62510;BME280;48558;48.242;11.654;2022-08-19T10:49:15;95808.72;;;20.50;100.00
62510;BME280;48558;48.242;11.654;2022-08-19T10:54:18;95805.69;;;21.20;100.00
62510;BME280;48558;48.242;11.654;2022-08-19T10:59:34;95792.50;;;21.58;100.00
62510;BME280;48558;48.242;11.654;2022-08-19T11:04:40;95802.41;;;21.44;100.00
62510;BME280;48558;48.242;11.654;2022-08-19T11:09:46;95789.44;;;21.48;100.00
62510;BME280;48558;48.242;11.654;2022-08-19T11:14:49;95783.34;;;22.41;100.00
62510;BME280;48558;48.242;11.654;2022-08-19T11:19:52;95779.91;;;24.33;100.00
62510;BME280;48558;48.242;11.654;2022-08-19T11:24:55;95782.06;;;24.67;92.48
62510;BME280;48558;48.242;11.654;2022-08-19T11:29:59;95789.50;;;23.24;100.00
62510;BME280;48558;48.242;11.654;2022-08-19T11:35:08;95788.22;;;23.50;100.00
62510;BME280;48558;48.242;11.654;2022-08-19T11:40:11;95786.88;;;21.73;100.00
62510;BME280;48558;48.242;11.654;2022-08-19T11:45:16;95779.75;;;22.32;100.00
62510;BME280;48558;48.242;11.654;2022-08-19T11:50:19;95784.66;;;22.24;100.00
62510;BME280;48558;48.242;11.654;2022-08-19T11:55:23;95785.00;;;21.83;100.00
62510;BME280;48558;48.242;11.654;2022-08-19T12:00:26;95770.41;;;21.19;100.00
62510;BME280;48558;48.242;11.654;2022-08-19T12:05:30;95794.28;;;21.25;100.00
62510;BME280;48558;48.242;11.654;2022-08-19T12:10:36;95766.00;;;21.03;100.00
62510;BME280;48558;48.242;11.654;2022-08-19T12:15:40;95776.22;;;21.28;100.00
62510;BME280;48558;48.242;11.654;2022-08-19T12:25:46;95761.41;;;21.43;100.00
62510;BME280;48558;48.242;11.654;2022-08-19T12:31:24;95763.97;;;22.99;100.00
62510;BME280;48558;48.242;11.654;2022-08-19T12:37:09;95756.50;;;23.59;92.30
62510;BME280;48558;48.242;11.654;2022-08-19T12:42:30;95775.81;;;23.78;100.00
62510;BME280;48558;48.242;11.654;2022-08-19T12:53:35;95785.50;;;22.87;87.07
62510;BME280;48558;48.242;11.654;2022-08-19T12:58:45;95786.47;;;22.60;93.47
62510;BME280;48558;48.242;11.654;2022-08-19T13:04:25;95817.25;;;21.37;100.00
62510;BME280;48558;48.242;11.654;2022-08-19T13:09:43;95783.75;;;21.33;100.00
62510;BME280;48558;48.242;11.654;2022-08-19T13:15:41;95798.56;;;22.00;100.00
62510;BME280;48558;48.242;11.654;2022-08-19T13:26:42;95817.00;;;22.01;100.00
62510;BME280;48558;48.242;11.654;2022-08-19T13:31:46;95786.31;;;20.37;100.00
62510;BME280;48558;48.242;11.654;2022-08-19T13:37:08;95800.84;;;20.49;100.00
62510;BME280;48558;48.242;11.654;2022-08-19T13:42:12;95801.03;;;21.22;100.00
62510;BME280;48558;48.242;11.654;2022-08-19T13:47:17;95792.25;;;20.90;100.00
62510;BME280;48558;48.242;11.654;2022-08-19T13:52:22;95795.00;;;22.22;100.00
62510;BME280;48558;48.242;11.654;2022-08-19T13:57:26;95808.28;;;21.46;100.00
62510;BME280;48558;48.242;11.654;2022-08-19T14:02:57;95800.88;;;20.92;100.00
62510;BME280;48558;48.242;11.654;2022-08-19T14:08:35;95776.44;;;21.38;100.00
62510;BME280;48558;48.242;11.654;2022-08-19T14:14:19;95761.13;;;22.29;100.00
62510;BME280;48558;48.242;11.654;2022-08-19T14:20:06;95760.06;;;21.29;100.00
62510;BME280;48558;48.242;11.654;2022-08-19T14:26:09;95777.38;;;21.33;100.00
62510;BME280;48558;48.242;11.654;2022-08-19T14:31:55;95772.72;;;20.28;100.00
62510;BME280;48558;48.242;11.654;2022-08-19T14:38:13;95820.25;;;20.67;100.00
62510;BME280;48558;48.242;11.654;2022-08-19T14:49:46;95792.22;;;20.82;100.00
62510;BME280;48558;48.242;11.654;2022-08-19T14:55:57;95821.75;;;23.14;100.00
62510;BME280;48558;48.242;11.654;2022-08-19T15:01:49;95823.31;;;21.56;100.00
62510;BME280;48558;48.242;11.654;2022-08-19T15:07:17;95821.94;;;20.91;100.00
62510;BME280;48558;48.242;11.654;2022-08-19T15:13:19;95815.81;;;20.44;100.00
62510;BME280;48558;48.242;11.654;2022-08-19T15:19:42;95770.78;;;19.95;100.00
62510;BME280;48558;48.242;11.654;2022-08-19T15:25:53;95803.22;;;21.09;100.00
62510;BME280;48558;48.242;11.654;2022-08-19T15:31:32;95827.16;;;21.89;100.00
62510;BME280;48558;48.242;11.654;2022-08-19T15:36:39;95840.13;;;20.82;100.00
62510;BME280;48558;48.242;11.654;2022-08-19T15:41:45;95840.63;;;20.04;100.00
62510;BME280;48558;48.242;11.654;2022-08-19T15:46:54;95868.03;;;20.03;100.00
62510;BME280;48558;48.242;11.654;2022-08-19T15:52:00;95872.50;;;19.65;100.00
62510;BME280;48558;48.242;11.654;2022-08-19T15:57:04;95870.72;;;19.75;100.00
62510;BME280;48558;48.242;11.654;2022-08-19T16:02:29;95858.41;;;19.99;100.00
62510;BME280;48558;48.242;11.654;2022-08-19T16:07:55;95848.16;;;19.88;100.00
62510;BME280;48558;48.242;11.654;2022-08-19T16:13:00;95859.41;;;19.88;100.00
62510;BME280;48558;48.242;11.654;2022-08-19T16:18:04;95874.09;;;19.74;100.00
62510;BME280;48558;48.242;11.654;2022-08-19T16:23:08;95862.97;;;19.89;100.00
62510;BME280;48558;48.242;11.654;2022-08-19T16:28:15;95877.19;;;20.04;100.00
62510;BME280;48558;48.242;11.654;2022-08-19T16:34:25;95855.22;;;19.14;100.00
62510;BME280;48558;48.242;11.654;2022-08-19T16:39:59;95897.13;;;18.99;100.00
62510;BME280;48558;48.242;11.654;2022-08-19T16:45:46;95896.06;;;19.15;100.00
62510;BME280;48558;48.242;11.654;2022-08-19T16:51:38;95896.81;;;19.03;100.00
62510;BME280;48558;48.242;11.654;2022-08-19T16:57:17;95887.53;;;18.24;100.00
62510;BME280;48558;48.242;11.654;2022-08-19T17:03:52;95916.03;;;18.28;100.00
62510;BME280;48558;48.242;11.654;2022-08-19T17:09:00;95911.69;;;18.13;100.00
62510;BME280;48558;48.242;11.654;2022-08-19T17:14:04;95910.78;;;18.05;100.00
62510;BME280;48558;48.242;11.654;2022-08-19T17:19:09;95919.56;;;18.47;100.00
62510;BME280;48558;48.242;11.654;2022-08-19T17:24:14;95931.63;;;18.42;100.00
62510;BME280;48558;48.242;11.654;2022-08-19T17:29:23;95927.78;;;18.45;100.00
62510;BME280;48558;48.242;11.654;2022-08-19T17:35:20;95948.47;;;18.42;100.00
62510;BME280;48558;48.242;11.654;2022-08-19T17:41:36;95958.69;;;18.07;100.00
62510;BME280;48558;48.242;11.654;2022-08-19T17:47:56;95930.56;;;17.81;100.00
62510;BME280;48558;48.242;11.654;2022-08-19T17:53:22;95939.78;;;17.95;100.00
62510;BME280;48558;48.242;11.654;2022-08-19T17:59:48;95927.38;;;17.72;100.00
62510;BME280;48558;48.242;11.654;2022-08-19T18:05:21;95958.81;;;17.83;100.00
62510;BME280;48558;48.242;11.654;2022-08-19T18:10:56;95950.03;;;17.55;100.00
62510;BME280;48558;48.242;11.654;2022-08-19T18:16:13;95995.94;;;17.71;100.00
62510;BME280;48558;48.242;11.654;2022-08-19T18:21:46;95954.69;;;17.28;100.00
62510;BME280;48558;48.242;11.654;2022-08-19T18:27:03;95950.22;;;17.20;100.00
62510;BME280;48558;48.242;11.654;2022-08-19T18:32:40;95957.34;;;17.21;100.00
62510;BME280;48558;48.242;11.654;2022-08-19T18:38:24;95975.69;;;17.40;100.00
62510;BME280;48558;48.242;11.654;2022-08-19T18:43:53;95979.38;;;17.30;100.00
62510;BME280;48558;48.242;11.654;2022-08-19T18:49:27;95984.63;;;17.15;100.00
62510;BME280;48558;48.242;11.654;2022-08-19T18:54:57;95965.88;;;16.86;100.00
62510;BME280;48558;48.242;11.654;2022-08-19T19:00:14;96018.91;;;17.02;100.00
62510;BME280;48558;48.242;11.654;2022-08-19T19:05:55;96020.69;;;17.00;100.00
62510;BME280;48558;48.242;11.654;2022-08-19T19:11:24;96017.94;;;16.70;100.00
62510;BME280;48558;48.242;11.654;2022-08-19T19:16:46;95992.25;;;16.36;100.00
62510;BME280;48558;48.242;11.654;2022-08-19T19:22:00;96023.44;;;16.16;100.00
62510;BME280;48558;48.242;11.654;2022-08-19T19:32:55;96040.06;;;15.97;100.00
62510;BME280;48558;48.242;11.654;2022-08-19T19:37:58;96036.47;;;16.02;100.00
62510;BME280;48558;48.242;11.654;2022-08-19T19:43:04;96046.41;;;15.98;100.00
62510;BME280;48558;48.242;11.654;2022-08-19T19:48:08;96037.50;;;15.99;100.00
62510;BME280;48558;48.242;11.654;2022-08-19T19:53:11;96045.31;;;16.12;100.00
62510;BME280;48558;48.242;11.654;2022-08-19T19:58:16;96054.25;;;16.05;100.00
62510;BME280;48558;48.242;11.654;2022-08-19T20:03:30;96061.66;;;16.02;100.00
62510;BME280;48558;48.242;11.654;2022-08-19T20:08:34;96074.84;;;16.08;100.00
62510;BME280;48558;48.242;11.654;2022-08-19T20:13:58;96081.22;;;16.02;100.00
62510;BME280;48558;48.242;11.654;2022-08-19T20:19:03;96076.16;;;16.01;100.00
62510;BME280;48558;48.242;11.654;2022-08-19T20:24:07;96075.13;;;15.98;100.00
62510;BME280;48558;48.242;11.654;2022-08-19T20:29:12;96085.06;;;15.94;100.00
62510;BME280;48558;48.242;11.654;2022-08-19T20:34:38;96095.22;;;15.97;100.00
62510;BME280;48558;48.242;11.654;2022-08-19T20:39:42;96096.69;;;16.09;100.00
62510;BME280;48558;48.242;11.654;2022-08-19T20:44:45;96098.53;;;15.95;100.00
62510;BME280;48558;48.242;11.654;2022-08-19T20:49:49;96110.47;;;15.96;100.00
62510;BME280;48558;48.242;11.654;2022-08-19T20:54:53;96105.66;;;15.91;100.00
62510;BME280;48558;48.242;11.654;2022-08-19T20:59:56;96112.25;;;15.93;100.00
62510;BME280;48558;48.242;11.654;2022-08-19T21:05:03;96092.22;;;15.89;100.00
62510;BME280;48558;48.242;11.654;2022-08-19T21:10:07;96106.91;;;15.95;100.00
62510;BME280;48558;48.242;11.654;2022-08-19T21:15:11;96108.94;;;15.95;100.00
62510;BME280;48558;48.242;11.654;2022-08-19T21:20:14;96108.75;;;15.87;100.00
62510;BME280;48558;48.242;11.654;2022-08-19T21:25:18;96125.75;;;15.84;100.00
62510;BME280;48558;48.242;11.654;2022-08-19T21:30:21;96119.44;;;15.78;100.00
62510;BME280;48558;48.242;11.654;2022-08-19T21:35:24;96130.53;;;15.94;100.00
62510;BME280;48558;48.242;11.654;2022-08-19T21:40:28;96122.72;;;15.82;100.00
62510;BME280;48558;48.242;11.654;2022-08-19T21:45:32;96127.78;;;15.89;100.00
62510;BME280;48558;48.242;11.654;2022-08-19T21:50:35;96136.13;;;15.94;100.00
62510;BME280;48558;48.242;11.654;2022-08-19T21:55:40;96132.66;;;15.83;100.00
62510;BME280;48558;48.242;11.654;2022-08-19T22:00:43;96126.25;;;15.88;100.00
62510;BME280;48558;48.242;11.654;2022-08-19T22:05:47;96145.31;;;15.84;100.00
62510;BME280;48558;48.242;11.654;2022-08-19T22:10:50;96134.44;;;15.80;100.00
62510;BME280;48558;48.242;11.654;2022-08-19T22:15:53;96131.31;;;15.95;100.00
62510;BME280;48558;48.242;11.654;2022-08-19T22:20:57;96132.13;;;15.79;100.00
62510;BME280;48558;48.242;11.654;2022-08-19T22:26:00;96138.47;;;15.85;100.00
62510;BME280;48558;48.242;11.654;2022-08-19T22:31:04;96127.00;;;15.94;100.00
62510;BME280;48558;48.242;11.654;2022-08-19T22:36:10;96122.19;;;15.83;100.00
62510;BME280;48558;48.242;11.654;2022-08-19T22:41:13;96125.25;;;15.85;100.00
62510;BME280;48558;48.242;11.654;2022-08-19T22:46:18;96121.66;;;15.96;100.00
62510;BME280;48558;48.242;11.654;2022-08-19T22:51:22;96125.22;;;15.91;100.00
62510;BME280;48558;48.242;11.654;2022-08-19T22:56:44;96119.88;;;15.98;100.00
62510;BME280;48558;48.242;11.654;2022-08-19T23:01:47;96120.59;;;15.99;100.00
62510;BME280;48558;48.242;11.654;2022-08-19T23:06:51;96132.31;;;15.97;100.00
62510;BME280;48558;48.242;11.654;2022-08-19T23:11:54;96123.88;;;16.09;100.00
62510;BME280;48558;48.242;11.654;2022-08-19T23:16:58;96118.38;;;15.92;100.00
62510;BME280;48558;48.242;11.654;2022-08-19T23:22:03;96110.44;;;16.01;100.00
62510;BME280;48558;48.242;11.654;2022-08-19T23:27:07;96114.53;;;15.95;100.00
62510;BME280;48558;48.242;11.654;2022-08-19T23:32:33;96098.78;;;15.97;100.00
62510;BME280;48558;48.242;11.654;2022-08-19T23:37:38;96094.25;;;15.89;100.00
62510;BME280;48558;48.242;11.654;2022-08-19T23:42:42;96116.16;;;15.74;100.00
62510;BME280;48558;48.242;11.654;2022-08-19T23:47:48;96110.84;;;15.70;100.00
62510;BME280;48558;48.242;11.654;2022-08-19T23:52:54;96118.38;;;15.86;100.00
62510;BME280;48558;48.242;11.654;2022-08-19T23:58:01;96109.72;;;15.95;100.00
